sensor_id;sensor_type;location;lat;lon;timestamp;P1;durP1;ratioP1;P2;durP2;ratioP2
65202;SDS011;51788;45.124;38.966;2023-09-18T00:00:25;6.68;;;5.97;;
65202;SDS011;51788;45.124;38.966;2023-09-18T00:02:51;7.50;;;6.80;;
65202;SDS011;51788;45.124;38.966;2023-09-18T00:05:17;10.68;;;7.10;;
65202;SDS011;51788;45.124;38.966;2023-09-18T00:07:44;7.47;;;6.78;;
65202;SDS011;51788;45.124;38.966;2023-09-18T00:10:10;7.82;;;7.13;;
65202;SDS011;51788;45.124;38.966;2023-09-18T00:12:37;12.50;;;6.95;;
65202;SDS011;51788;45.124;38.966;2023-09-18T00:15:04;12.55;;;6.80;;
65202;SDS011;51788;45.124;38.966;2023-09-18T00:17:31;7.20;;;6.50;;
65202;SDS011;51788;45.124;38.966;2023-09-18T00:19:57;7.60;;;6.80;;
65202;SDS011;51788;45.124;38.966;2023-09-18T00:22:23;9.90;;;8.15;;
65202;SDS011;51788;45.124;38.966;2023-09-18T00:24:50;7.10;;;6.50;;
65202;SDS011;51788;45.124;38.966;2023-09-18T00:27:15;7.18;;;6.50;;
65202;SDS011;51788;45.124;38.966;2023-09-18T00:29:42;8.23;;;7.07;;
65202;SDS011;51788;45.124;38.966;2023-09-18T00:32:08;7.78;;;7.00;;
65202;SDS011;51788;45.124;38.966;2023-09-18T00:34:34;10.70;;;6.35;;
65202;SDS011;51788;45.124;38.966;2023-09-18T00:37:00;10.70;;;7.88;;
65202;SDS011;51788;45.124;38.966;2023-09-18T00:39:26;10.90;;;7.05;;
65202;SDS011;51788;45.124;38.966;2023-09-18T00:41:52;7.47;;;6.60;;
65202;SDS011;51788;45.124;38.966;2023-09-18T00:44:22;7.50;;;6.88;;
65202;SDS011;51788;45.124;38.966;2023-09-18T00:46:49;12.27;;;7.20;;
65202;SDS011;51788;45.124;38.966;2023-09-18T00:49:17;7.68;;;7.05;;
65202;SDS011;51788;45.124;38.966;2023-09-18T00:51:44;7.93;;;6.43;;
65202;SDS011;51788;45.124;38.966;2023-09-18T00:54:10;14.48;;;7.03;;
65202;SDS011;51788;45.124;38.966;2023-09-18T00:56:37;7.57;;;6.88;;
65202;SDS011;51788;45.124;38.966;2023-09-18T00:59:03;7.20;;;6.50;;
65202;SDS011;51788;45.124;38.966;2023-09-18T01:01:30;7.70;;;6.40;;
65202;SDS011;51788;45.124;38.966;2023-09-18T01:03:57;10.60;;;8.02;;
65202;SDS011;51788;45.124;38.966;2023-09-18T01:06:26;8.65;;;7.68;;
65202;SDS011;51788;45.124;38.966;2023-09-18T01:08:56;7.93;;;7.28;;
65202;SDS011;51788;45.124;38.966;2023-09-18T01:16:58;6.97;;;6.38;;
65202;SDS011;51788;45.124;38.966;2023-09-18T01:19:37;9.65;;;7.88;;
65202;SDS011;51788;45.124;38.966;2023-09-18T01:22:04;8.55;;;7.70;;
65202;SDS011;51788;45.124;38.966;2023-09-18T01:24:32;9.63;;;7.47;;
65202;SDS011;51788;45.124;38.966;2023-09-18T01:26:59;7.00;;;6.43;;
65202;SDS011;51788;45.124;38.966;2023-09-18T01:29:25;9.40;;;7.43;;
65202;SDS011;51788;45.124;38.966;2023-09-18T01:31:52;7.50;;;6.80;;
65202;SDS011;51788;45.124;38.966;2023-09-18T01:34:19;10.05;;;7.70;;
65202;SDS011;51788;45.124;38.966;2023-09-18T01:36:48;7.72;;;6.95;;
65202;SDS011;51788;45.124;38.966;2023-09-18T01:39:15;8.63;;;7.72;;
65202;SDS011;51788;45.124;38.966;2023-09-18T01:41:43;10.45;;;7.68;;
65202;SDS011;51788;45.124;38.966;2023-09-18T01:44:09;7.70;;;7.00;;
65202;SDS011;51788;45.124;38.966;2023-09-18T01:46:35;8.05;;;7.20;;
65202;SDS011;51788;45.124;38.966;2023-09-18T01:49:02;7.85;;;7.07;;
65202;SDS011;51788;45.124;38.966;2023-09-18T01:51:29;9.43;;;7.03;;
65202;SDS011;51788;45.124;38.966;2023-09-18T01:53:55;8.07;;;7.35;;
65202;SDS011;51788;45.124;38.966;2023-09-18T01:56:22;11.13;;;8.82;;
65202;SDS011;51788;45.124;38.966;2023-09-18T01:58:49;18.33;;;8.50;;
65202;SDS011;51788;45.124;38.966;2023-09-18T02:01:15;8.10;;;7.40;;
65202;SDS011;51788;45.124;38.966;2023-09-18T02:03:41;12.43;;;7.25;;
65202;SDS011;51788;45.124;38.966;2023-09-18T02:06:07;8.60;;;7.80;;
65202;SDS011;51788;45.124;38.966;2023-09-18T02:08:37;12.25;;;8.52;;
65202;SDS011;51788;45.124;38.966;2023-09-18T02:11:02;14.80;;;8.98;;
65202;SDS011;51788;45.124;38.966;2023-09-18T02:13:29;9.38;;;7.88;;
65202;SDS011;51788;45.124;38.966;2023-09-18T02:15:56;10.43;;;9.32;;
65202;SDS011;51788;45.124;38.966;2023-09-18T02:18:22;16.23;;;8.68;;
65202;SDS011;51788;45.124;38.966;2023-09-18T02:20:48;12.07;;;9.25;;
65202;SDS011;51788;45.124;38.966;2023-09-18T02:23:15;16.60;;;9.50;;
65202;SDS011;51788;45.124;38.966;2023-09-18T02:25:41;9.63;;;8.63;;
65202;SDS011;51788;45.124;38.966;2023-09-18T02:28:07;17.35;;;8.90;;
65202;SDS011;51788;45.124;38.966;2023-09-18T02:30:33;11.55;;;8.10;;
65202;SDS011;51788;45.124;38.966;2023-09-18T02:32:59;12.77;;;8.52;;
65202;SDS011;51788;45.124;38.966;2023-09-18T02:35:28;11.10;;;8.88;;
65202;SDS011;51788;45.124;38.966;2023-09-18T02:37:55;9.05;;;8.15;;
65202;SDS011;51788;45.124;38.966;2023-09-18T02:56:44;14.90;;;9.73;;
65202;SDS011;51788;45.124;38.966;2023-09-18T02:59:11;17.13;;;9.50;;
65202;SDS011;51788;45.124;38.966;2023-09-18T03:01:37;13.23;;;9.05;;
65202;SDS011;51788;45.124;38.966;2023-09-18T03:04:03;10.27;;;8.40;;
65202;SDS011;51788;45.124;38.966;2023-09-18T03:06:29;9.60;;;8.70;;
65202;SDS011;51788;45.124;38.966;2023-09-18T03:08:55;14.60;;;8.98;;
65202;SDS011;51788;45.124;38.966;2023-09-18T03:11:21;16.95;;;9.43;;
65202;SDS011;51788;45.124;38.966;2023-09-18T03:13:47;14.52;;;8.82;;
65202;SDS011;51788;45.124;38.966;2023-09-18T03:16:15;14.40;;;9.38;;
65202;SDS011;51788;45.124;38.966;2023-09-18T03:18:43;13.05;;;8.65;;
65202;SDS011;51788;45.124;38.966;2023-09-18T03:21:09;14.77;;;9.57;;
65202;SDS011;51788;45.124;38.966;2023-09-18T03:23:35;10.70;;;8.77;;
65202;SDS011;51788;45.124;38.966;2023-09-18T03:26:02;14.48;;;8.98;;
65202;SDS011;51788;45.124;38.966;2023-09-18T03:28:28;11.73;;;8.90;;
65202;SDS011;51788;45.124;38.966;2023-09-18T03:30:55;10.52;;;9.10;;
65202;SDS011;51788;45.124;38.966;2023-09-18T03:33:23;10.60;;;8.85;;
65202;SDS011;51788;45.124;38.966;2023-09-18T03:35:50;18.52;;;9.30;;
65202;SDS011;51788;45.124;38.966;2023-09-18T03:38:22;17.23;;;10.38;;
65202;SDS011;51788;45.124;38.966;2023-09-18T03:40:49;13.32;;;10.25;;
65202;SDS011;51788;45.124;38.966;2023-09-18T03:43:16;24.88;;;11.98;;
65202;SDS011;51788;45.124;38.966;2023-09-18T03:45:43;19.02;;;12.13;;
65202;SDS011;51788;45.124;38.966;2023-09-18T03:48:09;15.30;;;11.73;;
65202;SDS011;51788;45.124;38.966;2023-09-18T03:50:35;16.05;;;12.88;;
65202;SDS011;51788;45.124;38.966;2023-09-18T03:53:01;19.58;;;12.18;;
65202;SDS011;51788;45.124;38.966;2023-09-18T03:55:28;17.08;;;11.07;;
65202;SDS011;51788;45.124;38.966;2023-09-18T03:57:55;12.98;;;11.10;;
65202;SDS011;51788;45.124;38.966;2023-09-18T04:00:21;19.55;;;11.10;;
65202;SDS011;51788;45.124;38.966;2023-09-18T04:02:48;18.05;;;10.52;;
65202;SDS011;51788;45.124;38.966;2023-09-18T04:05:14;30.13;;;10.95;;
65202;SDS011;51788;45.124;38.966;2023-09-18T04:07:40;14.13;;;10.43;;
65202;SDS011;51788;45.124;38.966;2023-09-18T04:10:06;15.65;;;9.48;;
65202;SDS011;51788;45.124;38.966;2023-09-18T04:12:32;28.08;;;10.40;;
65202;SDS011;51788;45.124;38.966;2023-09-18T04:14:58;14.65;;;10.77;;
65202;SDS011;51788;45.124;38.966;2023-09-18T04:17:24;27.10;;;14.32;;
65202;SDS011;51788;45.124;38.966;2023-09-18T04:19:51;13.90;;;11.18;;
65202;SDS011;51788;45.124;38.966;2023-09-18T04:22:17;19.02;;;10.45;;
65202;SDS011;51788;45.124;38.966;2023-09-18T04:24:43;21.52;;;12.13;;
65202;SDS011;51788;45.124;38.966;2023-09-18T04:27:09;13.68;;;10.50;;
65202;SDS011;51788;45.124;38.966;2023-09-18T04:29:35;30.73;;;11.25;;
65202;SDS011;51788;45.124;38.966;2023-09-18T04:32:02;23.95;;;9.60;;
65202;SDS011;51788;45.124;38.966;2023-09-18T04:34:30;20.02;;;10.93;;
65202;SDS011;51788;45.124;38.966;2023-09-18T04:36:56;27.00;;;10.13;;
65202;SDS011;51788;45.124;38.966;2023-09-18T04:39:23;26.92;;;11.45;;
65202;SDS011;51788;45.124;38.966;2023-09-18T04:41:49;17.90;;;10.98;;
65202;SDS011;51788;45.124;38.966;2023-09-18T04:44:15;15.20;;;10.27;;
65202;SDS011;51788;45.124;38.966;2023-09-18T04:46:43;20.08;;;10.07;;
65202;SDS011;51788;45.124;38.966;2023-09-18T04:49:10;23.83;;;10.05;;
65202;SDS011;51788;45.124;38.966;2023-09-18T04:51:37;15.55;;;9.98;;
65202;SDS011;51788;45.124;38.966;2023-09-18T04:54:05;20.45;;;10.93;;
65202;SDS011;51788;45.124;38.966;2023-09-18T04:56:32;14.35;;;9.55;;
65202;SDS011;51788;45.124;38.966;2023-09-18T04:58:58;16.77;;;10.57;;
65202;SDS011;51788;45.124;38.966;2023-09-18T05:01:24;17.55;;;10.85;;
65202;SDS011;51788;45.124;38.966;2023-09-18T05:03:50;15.25;;;9.15;;
65202;SDS011;51788;45.124;38.966;2023-09-18T05:06:17;42.10;;;10.05;;
65202;SDS011;51788;45.124;38.966;2023-09-18T05:08:43;18.65;;;10.15;;
65202;SDS011;51788;45.124;38.966;2023-09-18T05:11:09;17.60;;;10.40;;
65202;SDS011;51788;45.124;38.966;2023-09-18T05:13:36;13.90;;;10.18;;
65202;SDS011;51788;45.124;38.966;2023-09-18T05:16:02;13.05;;;8.35;;
65202;SDS011;51788;45.124;38.966;2023-09-18T05:18:29;12.50;;;9.57;;
65202;SDS011;51788;45.124;38.966;2023-09-18T05:20:55;19.02;;;8.57;;
65202;SDS011;51788;45.124;38.966;2023-09-18T05:23:21;13.40;;;8.15;;
65202;SDS011;51788;45.124;38.966;2023-09-18T05:25:47;11.70;;;8.43;;
65202;SDS011;51788;45.124;38.966;2023-09-18T05:28:13;12.02;;;8.05;;
65202;SDS011;51788;45.124;38.966;2023-09-18T05:30:39;14.65;;;8.25;;
65202;SDS011;51788;45.124;38.966;2023-09-18T05:33:06;12.65;;;8.93;;
65202;SDS011;51788;45.124;38.966;2023-09-18T05:35:34;20.83;;;8.73;;
65202;SDS011;51788;45.124;38.966;2023-09-18T05:38:02;9.13;;;8.23;;
65202;SDS011;51788;45.124;38.966;2023-09-18T05:40:29;14.85;;;8.95;;
65202;SDS011;51788;45.124;38.966;2023-09-18T05:42:55;17.33;;;8.48;;
65202;SDS011;51788;45.124;38.966;2023-09-18T05:45:22;10.43;;;7.40;;
65202;SDS011;51788;45.124;38.966;2023-09-18T05:47:48;25.83;;;8.82;;
65202;SDS011;51788;45.124;38.966;2023-09-18T05:50:15;8.57;;;7.38;;
65202;SDS011;51788;45.124;38.966;2023-09-18T05:52:47;13.30;;;8.20;;
65202;SDS011;51788;45.124;38.966;2023-09-18T05:55:14;7.78;;;7.10;;
65202;SDS011;51788;45.124;38.966;2023-09-18T05:57:41;12.82;;;8.00;;
65202;SDS011;51788;45.124;38.966;2023-09-18T06:00:07;14.43;;;9.85;;
65202;SDS011;51788;45.124;38.966;2023-09-18T06:02:39;12.98;;;8.93;;
65202;SDS011;51788;45.124;38.966;2023-09-18T06:05:05;14.45;;;8.15;;
65202;SDS011;51788;45.124;38.966;2023-09-18T06:07:32;8.93;;;7.55;;
65202;SDS011;51788;45.124;38.966;2023-09-18T06:09:58;11.55;;;8.43;;
65202;SDS011;51788;45.124;38.966;2023-09-18T06:12:24;12.70;;;8.63;;
65202;SDS011;51788;45.124;38.966;2023-09-18T06:14:51;10.23;;;8.07;;
65202;SDS011;51788;45.124;38.966;2023-09-18T06:17:17;9.32;;;8.48;;
65202;SDS011;51788;45.124;38.966;2023-09-18T06:19:44;29.20;;;9.07;;
65202;SDS011;51788;45.124;38.966;2023-09-18T06:22:11;14.38;;;8.35;;
65202;SDS011;51788;45.124;38.966;2023-09-18T06:24:37;9.13;;;8.13;;
65202;SDS011;51788;45.124;38.966;2023-09-18T06:27:04;15.25;;;9.02;;
65202;SDS011;51788;45.124;38.966;2023-09-18T06:29:30;12.90;;;7.65;;
65202;SDS011;51788;45.124;38.966;2023-09-18T06:31:57;8.95;;;8.10;;
65202;SDS011;51788;45.124;38.966;2023-09-18T06:34:23;18.67;;;8.93;;
65202;SDS011;51788;45.124;38.966;2023-09-18T06:36:49;9.68;;;7.85;;
65202;SDS011;51788;45.124;38.966;2023-09-18T06:39:15;9.63;;;7.38;;
65202;SDS011;51788;45.124;38.966;2023-09-18T06:41:41;18.10;;;7.55;;
65202;SDS011;51788;45.124;38.966;2023-09-18T06:44:11;8.70;;;7.88;;
65202;SDS011;51788;45.124;38.966;2023-09-18T06:46:37;10.75;;;7.88;;
65202;SDS011;51788;45.124;38.966;2023-09-18T06:49:03;9.15;;;8.18;;
65202;SDS011;51788;45.124;38.966;2023-09-18T06:51:29;9.32;;;8.43;;
65202;SDS011;51788;45.124;38.966;2023-09-18T06:53:55;9.82;;;8.02;;
65202;SDS011;51788;45.124;38.966;2023-09-18T06:56:23;13.95;;;9.45;;
65202;SDS011;51788;45.124;38.966;2023-09-18T06:58:51;19.08;;;11.63;;
65202;SDS011;51788;45.124;38.966;2023-09-18T07:01:18;10.43;;;8.90;;
65202;SDS011;51788;45.124;38.966;2023-09-18T07:03:45;13.65;;;10.38;;
65202;SDS011;51788;45.124;38.966;2023-09-18T07:06:13;16.48;;;9.90;;
65202;SDS011;51788;45.124;38.966;2023-09-18T07:08:43;11.57;;;8.82;;
65202;SDS011;51788;45.124;38.966;2023-09-18T07:11:10;29.40;;;15.45;;
65202;SDS011;51788;45.124;38.966;2023-09-18T07:13:37;19.35;;;9.02;;
65202;SDS011;51788;45.124;38.966;2023-09-18T07:16:04;11.32;;;7.85;;
65202;SDS011;51788;45.124;38.966;2023-09-18T07:18:31;10.75;;;9.07;;
65202;SDS011;51788;45.124;38.966;2023-09-18T07:20:58;15.40;;;7.75;;
65202;SDS011;51788;45.124;38.966;2023-09-18T07:23:24;13.20;;;7.43;;
65202;SDS011;51788;45.124;38.966;2023-09-18T07:25:50;9.77;;;7.78;;
65202;SDS011;51788;45.124;38.966;2023-09-18T07:28:16;9.13;;;7.60;;
65202;SDS011;51788;45.124;38.966;2023-09-18T07:30:44;22.30;;;8.15;;
65202;SDS011;51788;45.124;38.966;2023-09-18T07:33:10;13.43;;;9.70;;
65202;SDS011;51788;45.124;38.966;2023-09-18T07:35:36;8.80;;;6.95;;
65202;SDS011;51788;45.124;38.966;2023-09-18T07:38:03;13.38;;;9.25;;
65202;SDS011;51788;45.124;38.966;2023-09-18T07:40:30;17.10;;;12.65;;
65202;SDS011;51788;45.124;38.966;2023-09-18T07:42:56;13.95;;;10.75;;
65202;SDS011;51788;45.124;38.966;2023-09-18T07:45:25;10.18;;;5.65;;
65202;SDS011;51788;45.124;38.966;2023-09-18T07:47:51;8.18;;;5.55;;
65202;SDS011;51788;45.124;38.966;2023-09-18T07:50:17;12.93;;;6.20;;
65202;SDS011;51788;45.124;38.966;2023-09-18T07:52:43;10.50;;;7.07;;
65202;SDS011;51788;45.124;38.966;2023-09-18T07:55:09;16.98;;;7.22;;
65202;SDS011;51788;45.124;38.966;2023-09-18T07:57:35;8.95;;;6.88;;
65202;SDS011;51788;45.124;38.966;2023-09-18T08:00:03;15.18;;;6.18;;
65202;SDS011;51788;45.124;38.966;2023-09-18T08:02:37;22.42;;;12.38;;
65202;SDS011;51788;45.124;38.966;2023-09-18T08:05:04;15.88;;;8.73;;
65202;SDS011;51788;45.124;38.966;2023-09-18T08:07:30;11.07;;;6.55;;
65202;SDS011;51788;45.124;38.966;2023-09-18T08:09:57;10.35;;;7.10;;
65202;SDS011;51788;45.124;38.966;2023-09-18T08:12:23;9.00;;;5.43;;
65202;SDS011;51788;45.124;38.966;2023-09-18T08:14:49;7.82;;;6.30;;
65202;SDS011;51788;45.124;38.966;2023-09-18T08:17:15;18.02;;;6.32;;
65202;SDS011;51788;45.124;38.966;2023-09-18T08:19:42;10.48;;;5.90;;
65202;SDS011;51788;45.124;38.966;2023-09-18T08:22:09;5.88;;;4.53;;
65202;SDS011;51788;45.124;38.966;2023-09-18T08:24:40;13.40;;;4.93;;
65202;SDS011;51788;45.124;38.966;2023-09-18T08:27:07;7.97;;;5.00;;
65202;SDS011;51788;45.124;38.966;2023-09-18T08:29:33;11.90;;;5.10;;
65202;SDS011;51788;45.124;38.966;2023-09-18T08:31:59;20.55;;;5.22;;
65202;SDS011;51788;45.124;38.966;2023-09-18T08:34:25;15.43;;;5.53;;
65202;SDS011;51788;45.124;38.966;2023-09-18T08:36:51;13.68;;;6.18;;
65202;SDS011;51788;45.124;38.966;2023-09-18T08:39:17;9.30;;;5.35;;
65202;SDS011;51788;45.124;38.966;2023-09-18T08:41:43;6.68;;;4.75;;
65202;SDS011;51788;45.124;38.966;2023-09-18T08:44:12;5.47;;;4.97;;
65202;SDS011;51788;45.124;38.966;2023-09-18T08:46:40;6.97;;;4.97;;
65202;SDS011;51788;45.124;38.966;2023-09-18T08:49:06;11.10;;;4.63;;
65202;SDS011;51788;45.124;38.966;2023-09-18T08:51:33;10.40;;;5.20;;
65202;SDS011;51788;45.124;38.966;2023-09-18T08:54:01;56.50;;;8.95;;
65202;SDS011;51788;45.124;38.966;2023-09-18T08:56:28;6.47;;;4.10;;
65202;SDS011;51788;45.124;38.966;2023-09-18T08:58:55;11.63;;;3.97;;
65202;SDS011;51788;45.124;38.966;2023-09-18T09:01:22;10.85;;;4.82;;
65202;SDS011;51788;45.124;38.966;2023-09-18T09:03:48;6.50;;;4.38;;
65202;SDS011;51788;45.124;38.966;2023-09-18T09:06:14;34.63;;;6.00;;
65202;SDS011;51788;45.124;38.966;2023-09-18T09:08:40;8.35;;;4.20;;
65202;SDS011;51788;45.124;38.966;2023-09-18T09:11:06;10.93;;;4.80;;
65202;SDS011;51788;45.124;38.966;2023-09-18T09:13:32;22.52;;;4.25;;
65202;SDS011;51788;45.124;38.966;2023-09-18T09:15:58;12.95;;;3.80;;
65202;SDS011;51788;45.124;38.966;2023-09-18T09:18:26;9.23;;;4.28;;
65202;SDS011;51788;45.124;38.966;2023-09-18T09:20:54;13.40;;;5.05;;
65202;SDS011;51788;45.124;38.966;2023-09-18T09:23:25;8.32;;;4.32;;
65202;SDS011;51788;45.124;38.966;2023-09-18T09:25:52;4.43;;;3.60;;
65202;SDS011;51788;45.124;38.966;2023-09-18T09:28:31;9.40;;;3.65;;
65202;SDS011;51788;45.124;38.966;2023-09-18T09:31:00;4.32;;;4.00;;
65202;SDS011;51788;45.124;38.966;2023-09-18T09:33:28;12.80;;;4.47;;
65202;SDS011;51788;45.124;38.966;2023-09-18T09:35:55;6.45;;;3.60;;
65202;SDS011;51788;45.124;38.966;2023-09-18T09:38:28;8.85;;;4.20;;
65202;SDS011;51788;45.124;38.966;2023-09-18T09:40:57;5.88;;;4.10;;
65202;SDS011;51788;45.124;38.966;2023-09-18T09:43:27;11.27;;;3.70;;
65202;SDS011;51788;45.124;38.966;2023-09-18T09:46:00;6.20;;;4.03;;
65202;SDS011;51788;45.124;38.966;2023-09-18T09:48:27;5.03;;;3.58;;
65202;SDS011;51788;45.124;38.966;2023-09-18T09:50:59;7.00;;;3.33;;
65202;SDS011;51788;45.124;38.966;2023-09-18T09:53:45;5.25;;;2.90;;
65202;SDS011;51788;45.124;38.966;2023-09-18T09:56:16;13.95;;;4.43;;
65202;SDS011;51788;45.124;38.966;2023-09-18T09:59:05;10.38;;;3.60;;
65202;SDS011;51788;45.124;38.966;2023-09-18T10:01:35;3.13;;;2.92;;
65202;SDS011;51788;45.124;38.966;2023-09-18T10:04:05;20.15;;;4.20;;
65202;SDS011;51788;45.124;38.966;2023-09-18T10:06:36;4.53;;;3.40;;
65202;SDS011;51788;45.124;38.966;2023-09-18T10:09:03;4.55;;;3.10;;
65202;SDS011;51788;45.124;38.966;2023-09-18T10:11:37;16.33;;;3.78;;
65202;SDS011;51788;45.124;38.966;2023-09-18T10:16:32;9.73;;;3.42;;
65202;SDS011;51788;45.124;38.966;2023-09-18T10:24:54;12.10;;;3.58;;
65202;SDS011;51788;45.124;38.966;2023-09-18T10:27:26;4.53;;;3.42;;
65202;SDS011;51788;45.124;38.966;2023-09-18T10:29:53;14.15;;;3.42;;
65202;SDS011;51788;45.124;38.966;2023-09-18T10:32:20;3.65;;;3.00;;
65202;SDS011;51788;45.124;38.966;2023-09-18T10:34:47;5.13;;;3.10;;
65202;SDS011;51788;45.124;38.966;2023-09-18T10:37:14;11.55;;;3.72;;
65202;SDS011;51788;45.124;38.966;2023-09-18T10:39:41;8.02;;;3.40;;
65202;SDS011;51788;45.124;38.966;2023-09-18T10:42:09;28.70;;;4.47;;
65202;SDS011;51788;45.124;38.966;2023-09-18T10:44:35;5.45;;;3.25;;
65202;SDS011;51788;45.124;38.966;2023-09-18T10:47:05;10.00;;;3.78;;
65202;SDS011;51788;45.124;38.966;2023-09-18T10:49:34;3.40;;;3.05;;
65202;SDS011;51788;45.124;38.966;2023-09-18T10:52:01;9.75;;;3.20;;
65202;SDS011;51788;45.124;38.966;2023-09-18T10:54:29;19.80;;;3.05;;
65202;SDS011;51788;45.124;38.966;2023-09-18T10:56:57;3.42;;;3.03;;
65202;SDS011;51788;45.124;38.966;2023-09-18T10:59:23;10.95;;;3.83;;
65202;SDS011;51788;45.124;38.966;2023-09-18T11:01:49;6.97;;;3.55;;
65202;SDS011;51788;45.124;38.966;2023-09-18T11:04:19;12.00;;;3.42;;
65202;SDS011;51788;45.124;38.966;2023-09-18T11:09:22;14.05;;;4.55;;
65202;SDS011;51788;45.124;38.966;2023-09-18T11:12:05;12.10;;;3.00;;
65202;SDS011;51788;45.124;38.966;2023-09-18T11:14:45;15.35;;;4.45;;
65202;SDS011;51788;45.124;38.966;2023-09-18T11:17:31;9.15;;;3.20;;
65202;SDS011;51788;45.124;38.966;2023-09-18T11:25:41;3.50;;;3.20;;
65202;SDS011;51788;45.124;38.966;2023-09-18T11:28:14;8.65;;;3.20;;
65202;SDS011;51788;45.124;38.966;2023-09-18T11:30:52;7.45;;;3.45;;
65202;SDS011;51788;45.124;38.966;2023-09-18T11:33:57;10.48;;;3.50;;
65202;SDS011;51788;45.124;38.966;2023-09-18T11:38:57;3.20;;;3.00;;
65202;SDS011;51788;45.124;38.966;2023-09-18T11:41:34;10.68;;;3.78;;
65202;SDS011;51788;45.124;38.966;2023-09-18T11:46:39;4.38;;;3.05;;
65202;SDS011;51788;45.124;38.966;2023-09-18T11:49:10;4.97;;;3.75;;
65202;SDS011;51788;45.124;38.966;2023-09-18T11:51:37;4.85;;;3.50;;
65202;SDS011;51788;45.124;38.966;2023-09-18T11:54:05;3.22;;;3.03;;
65202;SDS011;51788;45.124;38.966;2023-09-18T11:56:32;6.72;;;3.50;;
65202;SDS011;51788;45.124;38.966;2023-09-18T11:58:58;4.15;;;3.65;;
65202;SDS011;51788;45.124;38.966;2023-09-18T12:01:25;5.53;;;3.50;;
65202;SDS011;51788;45.124;38.966;2023-09-18T12:03:53;3.60;;;2.92;;
65202;SDS011;51788;45.124;38.966;2023-09-18T12:06:25;12.70;;;3.72;;
65202;SDS011;51788;45.124;38.966;2023-09-18T12:08:52;9.25;;;3.88;;
65202;SDS011;51788;45.124;38.966;2023-09-18T12:11:19;4.32;;;3.38;;
65202;SDS011;51788;45.124;38.966;2023-09-18T12:13:52;3.67;;;3.15;;
65202;SDS011;51788;45.124;38.966;2023-09-18T12:16:18;15.80;;;3.53;;
65202;SDS011;51788;45.124;38.966;2023-09-18T12:18:45;8.80;;;4.03;;
65202;SDS011;51788;45.124;38.966;2023-09-18T12:21:13;16.70;;;4.18;;
65202;SDS011;51788;45.124;38.966;2023-09-18T12:23:41;5.63;;;3.28;;
65202;SDS011;51788;45.124;38.966;2023-09-18T12:26:09;7.68;;;4.03;;
65202;SDS011;51788;45.124;38.966;2023-09-18T12:28:39;4.97;;;3.65;;
65202;SDS011;51788;45.124;38.966;2023-09-18T12:31:09;11.40;;;4.15;;
65202;SDS011;51788;45.124;38.966;2023-09-18T12:33:36;14.65;;;3.70;;
65202;SDS011;51788;45.124;38.966;2023-09-18T12:36:04;6.35;;;3.90;;
65202;SDS011;51788;45.124;38.966;2023-09-18T12:38:32;6.47;;;3.55;;
65202;SDS011;51788;45.124;38.966;2023-09-18T12:40:58;3.55;;;3.10;;
65202;SDS011;51788;45.124;38.966;2023-09-18T12:43:38;3.40;;;3.20;;
65202;SDS011;51788;45.124;38.966;2023-09-18T12:46:07;11.02;;;3.85;;
65202;SDS011;51788;45.124;38.966;2023-09-18T12:48:37;7.28;;;3.60;;
65202;SDS011;51788;45.124;38.966;2023-09-18T12:51:04;6.13;;;3.70;;
65202;SDS011;51788;45.124;38.966;2023-09-18T12:53:31;9.80;;;3.47;;
65202;SDS011;51788;45.124;38.966;2023-09-18T12:56:04;4.93;;;3.30;;
65202;SDS011;51788;45.124;38.966;2023-09-18T12:58:35;6.43;;;3.90;;
65202;SDS011;51788;45.124;38.966;2023-09-18T13:01:05;10.73;;;3.10;;
65202;SDS011;51788;45.124;38.966;2023-09-18T13:03:43;15.38;;;3.35;;
65202;SDS011;51788;45.124;38.966;2023-09-18T13:06:18;3.97;;;3.38;;
65202;SDS011;51788;45.124;38.966;2023-09-18T13:08:45;6.07;;;3.30;;
65202;SDS011;51788;45.124;38.966;2023-09-18T13:11:12;9.85;;;3.53;;
65202;SDS011;51788;45.124;38.966;2023-09-18T13:13:41;8.32;;;3.38;;
65202;SDS011;51788;45.124;38.966;2023-09-18T13:16:09;16.52;;;3.47;;
65202;SDS011;51788;45.124;38.966;2023-09-18T13:18:36;8.05;;;2.95;;
65202;SDS011;51788;45.124;38.966;2023-09-18T13:21:14;3.55;;;3.00;;
65202;SDS011;51788;45.124;38.966;2023-09-18T13:23:40;12.32;;;4.07;;
65202;SDS011;51788;45.124;38.966;2023-09-18T13:26:06;12.98;;;3.08;;
65202;SDS011;51788;45.124;38.966;2023-09-18T13:28:35;27.05;;;3.22;;
65202;SDS011;51788;45.124;38.966;2023-09-18T13:31:05;5.25;;;3.25;;
65202;SDS011;51788;45.124;38.966;2023-09-18T13:33:32;16.23;;;3.65;;
65202;SDS011;51788;45.124;38.966;2023-09-18T13:36:03;5.18;;;3.85;;
65202;SDS011;51788;45.124;38.966;2023-09-18T13:38:30;7.68;;;3.53;;
65202;SDS011;51788;45.124;38.966;2023-09-18T13:40:57;10.80;;;3.40;;
65202;SDS011;51788;45.124;38.966;2023-09-18T13:43:23;11.73;;;3.40;;
65202;SDS011;51788;45.124;38.966;2023-09-18T13:45:49;4.25;;;3.20;;
65202;SDS011;51788;45.124;38.966;2023-09-18T13:48:17;17.23;;;3.60;;
65202;SDS011;51788;45.124;38.966;2023-09-18T13:50:43;6.95;;;4.18;;
65202;SDS011;51788;45.124;38.966;2023-09-18T13:53:10;6.43;;;3.40;;
65202;SDS011;51788;45.124;38.966;2023-09-18T13:55:36;4.10;;;3.70;;
65202;SDS011;51788;45.124;38.966;2023-09-18T13:58:02;6.72;;;3.22;;
65202;SDS011;51788;45.124;38.966;2023-09-18T14:00:29;8.27;;;3.58;;
65202;SDS011;51788;45.124;38.966;2023-09-18T14:02:56;6.57;;;3.42;;
65202;SDS011;51788;45.124;38.966;2023-09-18T14:05:22;5.93;;;2.85;;
65202;SDS011;51788;45.124;38.966;2023-09-18T14:07:48;17.33;;;4.30;;
65202;SDS011;51788;45.124;38.966;2023-09-18T14:10:14;5.40;;;3.58;;
65202;SDS011;51788;45.124;38.966;2023-09-18T14:12:43;8.07;;;3.65;;
65202;SDS011;51788;45.124;38.966;2023-09-18T14:15:09;7.53;;;3.58;;
65202;SDS011;51788;45.124;38.966;2023-09-18T14:17:36;11.43;;;3.88;;
65202;SDS011;51788;45.124;38.966;2023-09-18T14:20:03;3.85;;;3.55;;
65202;SDS011;51788;45.124;38.966;2023-09-18T14:22:32;3.58;;;3.28;;
65202;SDS011;51788;45.124;38.966;2023-09-18T14:24:58;14.85;;;3.70;;
65202;SDS011;51788;45.124;38.966;2023-09-18T14:27:25;8.68;;;3.50;;
65202;SDS011;51788;45.124;38.966;2023-09-18T14:29:51;8.00;;;3.55;;
65202;SDS011;51788;45.124;38.966;2023-09-18T14:32:17;5.43;;;3.75;;
65202;SDS011;51788;45.124;38.966;2023-09-18T14:34:44;5.20;;;3.65;;
65202;SDS011;51788;45.124;38.966;2023-09-18T14:37:11;11.40;;;3.58;;
65202;SDS011;51788;45.124;38.966;2023-09-18T14:39:37;10.80;;;3.70;;
65202;SDS011;51788;45.124;38.966;2023-09-18T14:42:03;3.42;;;3.13;;
65202;SDS011;51788;45.124;38.966;2023-09-18T14:44:29;8.07;;;3.78;;
65202;SDS011;51788;45.124;38.966;2023-09-18T14:46:55;12.57;;;4.03;;
65202;SDS011;51788;45.124;38.966;2023-09-18T14:49:21;18.23;;;4.78;;
65202;SDS011;51788;45.124;38.966;2023-09-18T14:51:48;15.48;;;4.90;;
65202;SDS011;51788;45.124;38.966;2023-09-18T14:54:15;13.13;;;4.43;;
65202;SDS011;51788;45.124;38.966;2023-09-18T14:56:41;27.15;;;4.47;;
65202;SDS011;51788;45.124;38.966;2023-09-18T14:59:07;6.93;;;3.45;;
65202;SDS011;51788;45.124;38.966;2023-09-18T15:01:34;7.63;;;4.03;;
65202;SDS011;51788;45.124;38.966;2023-09-18T15:04:00;21.35;;;3.97;;
65202;SDS011;51788;45.124;38.966;2023-09-18T15:06:26;5.57;;;3.35;;
65202;SDS011;51788;45.124;38.966;2023-09-18T15:08:52;24.58;;;5.93;;
65202;SDS011;51788;45.124;38.966;2023-09-18T15:11:18;10.95;;;3.70;;